Time;durP1;ratioP1;P1;durP2;ratioP2;P2;SDS_P1;SDS_P2;PMS_P1;PMS_P2;Temp;Humidity;BMP_temperature;BMP_pressure;BME280_temperature;BME280_humidity;BME280_pressure;Samples;Min_cycle;Max_cycle;Signal;HPM_P1;HPM_P2
2023/06/16 00:00:43;;;;;;;12.10;10.50;;;;;;;10.77;75.06;99754.13;219782;1260;140989;-73
2023/06/16 00:06:14;;;;;;;10.90;9.80;;;;;;;10.75;74.86;99748.28;218503;1260;140887;-72
2023/06/16 00:11:18;;;;;;;9.60;8.80;;;;;;;10.65;74.81;99748.67;219721;1261;141599;-74
2023/06/16 00:16:23;;;;;;;9.40;8.40;;;;;;;10.49;74.84;99748.80;219081;1260;139667;-74
2023/06/16 00:21:35;;;;;;;13.00;9.10;;;;;;;10.34;75.11;99744.29;219702;1261;140317;-74
2023/06/16 00:26:41;;;;;;;10.50;9.60;;;;;;;10.25;75.27;99740.80;219806;1261;140282;-73
2023/06/16 00:31:46;;;;;;;10.40;9.20;;;;;;;10.17;75.42;99734.11;219411;1260;141276;-73
2023/06/16 00:36:50;;;;;;;11.10;9.10;;;;;;;10.13;75.62;99737.84;219281;1261;140032;-73
2023/06/16 00:41:56;;;;;;;9.80;8.80;;;;;;;10.11;75.79;99737.68;219884;1260;140665;-73
2023/06/16 00:47:02;;;;;;;9.50;8.50;;;;;;;10.04;75.73;99740.20;219717;1259;140625;-72
2023/06/16 00:52:09;;;;;;;11.10;10.00;;;;;;;9.97;75.94;99738.02;219841;1263;140299;-70
2023/06/16 00:57:13;;;;;;;10.10;9.20;;;;;;;9.93;76.10;99737.86;219838;1263;140701;-72
2023/06/16 01:02:18;;;;;;;9.90;7.20;;;;;;;9.89;76.32;99736.42;219741;1262;140593;-72
2023/06/16 01:07:40;;;;;;;9.30;8.50;;;;;;;9.79;76.30;99735.33;219726;1260;139527;-72
2023/06/16 01:12:54;;;;;;;10.80;9.70;;;;;;;9.78;76.93;99729.51;219844;1261;140710;-73
2023/06/16 01:18:02;;;;;;;9.90;9.00;;;;;;;9.84;77.16;99727.94;219738;1260;139690;-73
2023/06/16 01:23:40;;;;;;;9.70;8.60;;;;;;;9.79;76.67;99728.89;219852;1261;139500;-68
2023/06/16 01:28:46;;;;;;;9.50;8.60;;;;;;;9.67;76.58;99723.97;219793;1261;139691;-72
2023/06/16 01:33:51;;;;;;;8.30;7.50;;;;;;;9.62;76.46;99722.89;219214;1260;140615;-72
2023/06/16 01:38:58;;;;;;;10.30;9.20;;;;;;;9.51;76.73;99716.02;216586;1260;139513;-71
2023/06/16 01:44:04;;;;;;;10.50;9.50;;;;;;;9.47;76.90;99714.86;219853;1261;141115;-73
2023/06/16 01:49:09;;;;;;;9.40;8.50;;;;;;;9.38;76.86;99707.62;219537;1261;140419;-72
2023/06/16 01:54:13;;;;;;;10.80;9.50;;;;;;;9.33;77.15;99704.96;219772;1263;140991;-73
2023/06/16 01:59:18;;;;;;;12.80;9.00;;;;;;;9.31;77.35;99709.86;219732;1260;140432;-72
2023/06/16 02:04:24;;;;;;;14.40;10.50;;;;;;;9.26;77.47;99709.67;219793;1260;141705;-73
2023/06/16 02:09:30;;;;;;;8.90;8.10;;;;;;;9.22;77.43;99713.50;218509;1260;141504;-72
2023/06/16 02:14:35;;;;;;;11.50;10.40;;;;;;;9.13;77.47;99714.83;219751;1260;139486;-72
2023/06/16 02:19:40;;;;;;;12.10;11.00;;;;;;;9.11;77.62;99721.85;219226;1259;140176;-72
2023/06/16 02:24:46;;;;;;;12.00;10.80;;;;;;;9.13;77.75;99719.73;219747;1259;140777;-72
2023/06/16 02:29:51;;;;;;;16.10;11.20;;;;;;;9.18;77.96;99716.64;218274;1261;141323;-72
2023/06/16 02:34:56;;;;;;;11.00;10.00;;;;;;;9.16;77.75;99722.08;219785;1260;140404;-67
2023/06/16 02:40:00;;;;;;;12.00;10.90;;;;;;;9.14;77.84;99719.11;219190;1260;140267;-72
2023/06/16 02:45:05;;;;;;;21.60;9.90;;;;;;;9.17;77.91;99713.55;219879;1260;140592;-73
2023/06/16 02:50:10;;;;;;;10.80;9.20;;;;;;;9.11;77.75;99720.09;219648;1260;139945;-72
2023/06/16 02:55:15;;;;;;;13.10;11.10;;;;;;;9.07;77.84;99720.30;219760;1260;140450;-72
2023/06/16 03:00:20;;;;;;;10.60;9.60;;;;;;;9.10;78.07;99728.11;219628;1261;140311;-72
2023/06/16 03:05:27;;;;;;;11.70;8.90;;;;;;;9.12;78.05;99728.59;219662;1260;139698;-72
2023/06/16 03:10:32;;;;;;;11.60;10.50;;;;;;;9.15;78.37;99728.13;219676;1260;140919;-73
2023/06/16 03:15:37;;;;;;;11.20;10.00;;;;;;;9.23;78.35;99734.02;219800;1260;139904;-73
2023/06/16 03:20:45;;;;;;;12.50;9.90;;;;;;;9.27;78.33;99736.10;219684;1260;140107;-74
2023/06/16 03:25:50;;;;;;;13.30;11.00;;;;;;;9.33;78.65;99734.83;219823;1260;140161;-72
2023/06/16 03:30:56;;;;;;;15.80;12.80;;;;;;;9.47;78.86;99730.94;219800;1259;140540;-73
2023/06/16 03:36:00;;;;;;;15.10;13.60;;;;;;;9.67;79.18;99729.77;219780;1259;140727;-71
2023/06/16 03:41:05;;;;;;;15.50;13.40;;;;;;;9.84;79.05;99728.36;219860;1260;140299;-72
2023/06/16 03:46:09;;;;;;;11.60;10.50;;;;;;;10.16;79.35;99734.95;219802;1260;140709;-72
2023/06/16 03:51:16;;;;;;;14.20;12.70;;;;;;;10.44;79.46;99733.19;219823;1260;140668;-72
2023/06/16 03:56:22;;;;;;;17.00;14.50;;;;;;;10.68;79.31;99733.55;217585;1263;141064;-72
2023/06/16 04:01:26;;;;;;;13.80;12.40;;;;;;;11.17;79.36;99731.23;219713;1259;140749;-72
2023/06/16 04:06:34;;;;;;;14.80;13.30;;;;;;;11.43;79.23;99731.76;219745;1259;140341;-72
2023/06/16 04:11:40;;;;;;;14.60;12.80;;;;;;;11.59;79.04;99728.47;218350;1259;140103;-72
2023/06/16 04:16:44;;;;;;;14.60;13.00;;;;;;;11.76;79.05;99720.86;219631;1259;140605;-72
2023/06/16 04:21:48;;;;;;;18.50;14.20;;;;;;;12.06;79.12;99720.59;219805;1259;140756;-72
2023/06/16 04:26:57;;;;;;;16.50;14.30;;;;;;;12.55;79.27;99719.41;219660;1260;141024;-72
2023/06/16 04:32:02;;;;;;;18.50;14.80;;;;;;;12.90;79.36;99723.84;219831;1259;140856;-72
2023/06/16 04:37:11;;;;;;;16.00;14.20;;;;;;;14.69;77.16;99719.93;219564;1259;141786;-71
2023/06/16 04:42:16;;;;;;;20.00;15.20;;;;;;;16.54;74.91;99724.02;219913;1260;142218;-73
2023/06/16 04:47:21;;;;;;;19.80;16.90;;;;;;;17.55;73.74;99725.34;218428;1260;141212;-71
2023/06/16 04:52:27;;;;;;;16.80;15.30;;;;;;;18.69;71.50;99713.31;219626;1260;140388;-69
2023/06/16 04:57:35;;;;;;;17.30;15.60;;;;;;;18.83;71.57;99711.90;219790;1259;140787;-75
2023/06/16 05:02:40;;;;;;;16.80;14.40;;;;;;;19.03;69.70;99712.33;219592;1260;140392;-74
2023/06/16 05:07:45;;;;;;;24.00;17.70;;;;;;;19.61;68.46;99714.45;219661;1260;141222;-74
2023/06/16 05:12:54;;;;;;;19.20;17.50;;;;;;;21.74;64.92;99717.51;219717;1260;140229;-73
2023/06/16 05:17:58;;;;;;;17.90;16.10;;;;;;;25.05;61.44;99724.06;219824;1259;140231;-71
2023/06/16 05:23:03;;;;;;;16.70;15.10;;;;;;;28.03;57.98;99731.79;219700;1260;139603;-66
2023/06/16 05:28:12;;;;;;;19.00;14.70;;;;;;;30.52;54.27;99733.06;219936;1260;140335;-70
2023/06/16 05:33:18;;;;;;;13.30;12.20;;;;;;;32.43;50.11;99729.52;219841;1260;141086;-69
2023/06/16 05:38:24;;;;;;;12.20;10.60;;;;;;;34.22;48.07;99726.36;219840;1260;139673;-72
2023/06/16 05:43:30;;;;;;;7.90;7.30;;;;;;;35.97;45.36;99728.04;219750;1259;236738;-73
2023/06/16 05:48:35;;;;;;;11.40;8.50;;;;;;;37.53;42.66;99722.86;219788;1259;140817;-74
2023/06/16 05:53:40;;;;;;;8.90;7.20;;;;;;;38.80;40.01;99729.21;218396;1260;138929;-74
2023/06/16 05:58:45;;;;;;;5.70;5.20;;;;;;;39.71;37.24;99723.11;219301;1259;140044;-75
2023/06/16 06:03:51;;;;;;;5.10;4.70;;;;;;;40.14;34.71;99719.19;219926;1259;139648;-75
2023/06/16 06:08:57;;;;;;;5.70;4.30;;;;;;;40.58;33.59;99714.51;218221;1262;138613;-75
2023/06/16 06:14:01;;;;;;;4.90;4.50;;;;;;;40.92;32.34;99714.57;219565;1259;139983;-76
2023/06/16 06:19:14;;;;;;;4.10;3.80;;;;;;;41.40;31.31;99713.21;219588;1259;141167;-73
2023/06/16 06:24:20;;;;;;;4.30;3.90;;;;;;;41.47;29.88;99712.14;219126;1259;138647;-75
2023/06/16 06:29:25;;;;;;;3.90;3.70;;;;;;;40.44;28.79;99713.64;219800;1259;139790;-75
2023/06/16 06:34:30;;;;;;;4.70;3.90;;;;;;;40.17;28.90;99713.36;219203;1259;141076;-75
2023/06/16 06:39:34;;;;;;;3.70;3.40;;;;;;;40.59;28.63;99709.52;219291;1260;138820;-74
2023/06/16 06:44:38;;;;;;;4.50;4.20;;;;;;;40.60;28.00;99712.80;219754;1259;139427;-72
2023/06/16 06:49:42;;;;;;;4.80;4.10;;;;;;;40.88;28.05;99710.61;219907;1259;139036;-71
2023/06/16 06:54:46;;;;;;;3.20;3.00;;;;;;;41.12;27.53;99708.13;219813;1260;139565;-70
2023/06/16 06:59:51;;;;;;;7.40;3.20;;;;;;;41.12;26.98;99711.95;218709;1259;140060;-70
2023/06/16 07:04:56;;;;;;;3.20;3.00;;;;;;;40.55;26.03;99707.75;219693;1260;139149;-71
2023/06/16 07:10:05;;;;;;;2.70;2.50;;;;;;;39.64;26.45;99711.16;219853;1259;139394;-70
2023/06/16 07:15:11;;;;;;;2.30;2.20;;;;;;;39.06;26.25;99709.23;219756;1259;141564;-70
2023/06/16 07:20:15;;;;;;;3.60;3.30;;;;;;;38.99;25.82;99702.82;219693;1259;138620;-70
2023/06/16 07:25:19;;;;;;;3.70;3.40;;;;;;;38.35;26.70;99700.47;219869;1259;140663;-70
2023/06/16 07:30:24;;;;;;;3.30;3.10;;;;;;;37.71;26.72;99694.95;219666;1259;139062;-68
2023/06/16 07:35:29;;;;;;;3.20;2.80;;;;;;;36.73;27.57;99691.31;219617;1259;139328;-69
2023/06/16 07:40:33;;;;;;;2.80;2.20;;;;;;;36.26;28.17;99690.67;219752;1260;141622;-69
2023/06/16 07:45:37;;;;;;;3.50;3.30;;;;;;;35.87;28.36;99687.06;219861;1259;139403;-69
2023/06/16 07:50:41;;;;;;;4.00;2.90;;;;;;;34.83;28.86;99687.48;219841;1260;141044;-74
2023/06/16 07:55:47;;;;;;;4.10;3.00;;;;;;;33.85;29.53;99681.77;218121;1262;139994;-73
2023/06/16 08:00:52;;;;;;;4.30;3.00;;;;;;;33.18;29.97;99675.78;218445;1259;140737;-72
2023/06/16 08:05:57;;;;;;;4.40;4.00;;;;;;;32.49;30.47;99676.14;219685;1260;139187;-72
2023/06/16 08:11:02;;;;;;;4.40;3.50;;;;;;;32.21;31.65;99672.77;219964;1259;140158;-71
2023/06/16 08:16:07;;;;;;;3.40;3.20;;;;;;;31.88;32.32;99669.77;220029;1260;138865;-72
2023/06/16 08:21:11;;;;;;;3.50;3.30;;;;;;;31.61;32.89;99669.70;219772;1262;152480;-74
2023/06/16 08:26:16;;;;;;;3.40;3.10;;;;;;;31.30;32.77;99666.90;219424;1261;139122;-70
2023/06/16 08:31:21;;;;;;;3.60;3.30;;;;;;;30.46;32.90;99669.48;219325;1259;140028;-70
2023/06/16 08:36:26;;;;;;;5.70;2.90;;;;;;;30.08;33.74;99664.38;219088;1260;141330;-70
2023/06/16 08:41:33;;;;;;;4.20;3.80;;;;;;;30.15;34.68;99664.81;219779;1259;142242;-72
2023/06/16 08:46:38;;;;;;;5.80;3.40;;;;;;;29.60;34.28;99663.55;219882;1261;139326;-72
2023/06/16 08:51:49;;;;;;;4.10;3.60;;;;;;;29.53;34.69;99662.73;218240;1259;139708;-69
2023/06/16 08:56:54;;;;;;;5.70;2.80;;;;;;;29.82;34.71;99662.71;219851;1259;139110;-70
2023/06/16 09:02:01;;;;;;;3.80;3.00;;;;;;;29.76;34.19;99662.93;219938;1259;139765;-71
2023/06/16 09:07:07;;;;;;;4.80;3.00;;;;;;;29.20;34.21;99660.48;219976;1259;139431;-73
2023/06/16 09:12:12;;;;;;;3.60;2.90;;;;;;;29.07;34.35;99653.54;219833;1259;246315;-69
2023/06/16 09:17:30;;;;;;;4.70;3.20;;;;;;;28.84;34.30;99653.04;219765;1259;139445;-69
2023/06/16 09:22:36;;;;;;;3.70;3.40;;;;;;;28.86;34.95;99655.83;219718;1259;140550;-68
2023/06/16 09:27:55;;;;;;;3.40;3.00;;;;;;;28.62;34.95;99651.67;220056;1259;139727;-70
2023/06/16 09:33:02;;;;;;;3.20;3.00;;;;;;;28.72;34.99;99645.16;219728;1259;140233;-69
2023/06/16 09:38:10;;;;;;;9.10;3.00;;;;;;;28.78;34.67;99642.48;219902;1261;139295;-69
2023/06/16 09:43:14;;;;;;;3.20;3.00;;;;;;;28.96;34.71;99638.98;219737;1259;139808;-68
2023/06/16 09:48:20;;;;;;;2.80;2.60;;;;;;;28.84;34.33;99637.11;219970;1259;139396;-68
2023/06/16 09:53:26;;;;;;;2.90;2.60;;;;;;;28.12;34.39;99630.73;219743;1259;139490;-68
2023/06/16 09:58:31;;;;;;;2.80;2.60;;;;;;;27.99;34.91;99635.73;219700;1259;140190;-70
2023/06/16 10:03:51;;;;;;;3.60;3.30;;;;;;;27.58;34.70;99627.98;219976;1259;139241;-70
2023/06/16 10:08:57;;;;;;;3.80;3.50;;;;;;;26.93;35.47;99627.30;219783;1259;138655;-69
2023/06/16 10:14:02;;;;;;;6.20;3.20;;;;;;;26.51;36.03;99628.52;219732;1259;140267;-68
2023/06/16 10:19:07;;;;;;;5.00;3.40;;;;;;;26.69;36.25;99625.66;219733;1259;140215;-69
2023/06/16 10:24:13;;;;;;;4.10;3.80;;;;;;;26.96;36.59;99626.61;219752;1259;139523;-68
2023/06/16 10:29:20;;;;;;;4.70;3.50;;;;;;;26.60;36.39;99627.57;219931;1259;139022;-67
2023/06/16 10:34:25;;;;;;;4.40;4.10;;;;;;;26.24;36.90;99625.77;219915;1261;141639;-68
2023/06/16 10:39:34;;;;;;;4.50;4.10;;;;;;;26.12;37.73;99629.06;219929;1259;139862;-71
2023/06/16 10:44:42;;;;;;;4.10;3.80;;;;;;;26.31;37.87;99625.24;219862;1259;139397;-68
2023/06/16 10:50:02;;;;;;;3.60;3.30;;;;;;;26.67;37.47;99623.41;220133;1259;139409;-70
2023/06/16 10:55:39;;;;;;;3.40;3.20;;;;;;;26.78;36.91;99619.43;219603;1260;139759;-69
2023/06/16 11:01:06;;;;;;;4.40;4.00;;;;;;;26.62;37.22;99622.94;219751;1261;139619;-72
2023/06/16 11:07:11;;;;;;;4.30;4.00;;;;;;;26.65;37.11;99616.14;219751;1259;139698;-71
2023/06/16 11:12:41;;;;;;;4.20;3.90;;;;;;;26.47;37.23;99610.77;219839;1260;140591;-70
2023/06/16 11:17:49;;;;;;;3.60;3.20;;;;;;;26.25;37.83;99610.13;219687;1259;140179;-66
2023/06/16 11:28:40;;;;;;;4.00;3.70;;;;;;;25.88;38.22;99610.30;196418;1273;967087;-66
2023/06/16 11:33:45;;;;;;;4.90;4.30;;;;;;;25.82;38.44;99608.80;218058;1270;140060;-69
2023/06/16 11:38:51;;;;;;;;;;;;;;;25.82;38.14;99604.97;218847;1269;139526;-68
2023/06/16 11:43:58;;;;;;;5.20;4.60;;;;;;;25.80;38.51;99602.41;218413;1270;125557;-68
2023/06/16 11:49:03;;;;;;;4.30;3.90;;;;;;;26.06;38.49;99592.95;218506;1269;140134;-71
2023/06/16 11:54:12;;;;;;;6.20;4.50;;;;;;;26.34;39.12;99586.86;216386;1270;139439;-68
2023/06/16 11:59:19;;;;;;;7.60;4.60;;;;;;;26.35;38.22;99587.73;218067;1269;139579;-68
2023/06/16 12:04:31;;;;;;;4.40;4.10;;;;;;;25.97;37.56;99578.30;216811;1270;139376;-69
2023/06/16 12:09:38;;;;;;;4.60;4.20;;;;;;;25.81;38.36;99575.61;216986;1270;139800;-68
2023/06/16 12:14:43;;;;;;;6.50;3.50;;;;;;;26.07;38.01;99577.23;216173;1269;139869;-67
2023/06/16 12:19:50;;;;;;;4.30;3.90;;;;;;;26.19;37.81;99578.55;216783;1270;139191;-66
2023/06/16 12:24:55;;;;;;;4.10;3.80;;;;;;;26.22;37.43;99583.72;216299;1270;141686;-66
2023/06/16 12:30:00;;;;;;;4.30;4.00;;;;;;;26.26;37.66;99583.61;216624;1270;140132;-66
2023/06/16 12:35:06;;;;;;;14.20;5.00;;;;;;;26.43;37.35;99579.73;216338;1270;140474;-67
2023/06/16 12:40:15;;;;;;;3.60;3.40;;;;;;;26.85;37.20;99578.07;215949;1273;139652;-65
2023/06/16 12:45:20;;;;;;;9.10;4.20;;;;;;;27.03;37.39;99572.75;216714;1272;139094;-64
2023/06/16 12:50:26;;;;;;;5.00;4.60;;;;;;;27.27;37.07;99565.80;216505;1270;139438;-65
2023/06/16 12:55:31;;;;;;;4.40;4.10;;;;;;;27.42;36.29;99568.98;216896;1270;141545;-66
2023/06/16 13:00:36;;;;;;;4.70;4.40;;;;;;;27.32;35.88;99559.61;216224;1273;139608;-70
2023/06/16 13:05:41;;;;;;;3.90;3.60;;;;;;;27.23;35.46;99557.11;215657;1270;139231;-70
2023/06/16 13:10:45;;;;;;;4.30;4.00;;;;;;;27.20;35.69;99561.27;215633;1270;139438;-68
2023/06/16 13:15:50;;;;;;;4.30;4.00;;;;;;;27.08;36.01;99557.35;216016;1273;139851;-70
2023/06/16 13:20:56;;;;;;;5.10;4.60;;;;;;;27.02;36.23;99553.42;215583;1270;139966;-69
2023/06/16 13:26:01;;;;;;;5.00;4.70;;;;;;;27.24;36.05;99555.42;215827;1273;139397;-68
2023/06/16 13:31:10;;;;;;;6.30;4.70;;;;;;;27.36;35.52;99556.61;218559;1269;138694;-68
2023/06/16 13:36:21;;;;;;;4.80;4.40;;;;;;;27.24;35.57;99552.91;216100;1269;138985;-69
2023/06/16 13:41:26;;;;;;;4.10;3.80;;;;;;;27.35;35.68;99545.48;217238;1270;140870;-69
2023/06/16 13:46:32;;;;;;;4.70;4.30;;;;;;;27.56;35.57;99525.70;217711;1269;139155;-68
2023/06/16 13:51:36;;;;;;;4.60;4.30;;;;;;;27.55;36.17;99515.08;217410;1270;141039;-67
2023/06/16 13:56:41;;;;;;;5.00;4.60;;;;;;;27.45;35.72;99511.23;216522;1270;140079;-66
2023/06/16 14:01:45;;;;;;;5.20;4.80;;;;;;;27.34;35.30;99515.80;216068;1270;139686;-67
2023/06/16 14:06:49;;;;;;;6.00;4.00;;;;;;;27.20;35.57;99514.17;216512;1269;138998;-68
2023/06/16 14:11:55;;;;;;;8.90;5.20;;;;;;;27.03;35.53;99513.27;216691;1270;139001;-67
2023/06/16 14:17:00;;;;;;;5.00;4.40;;;;;;;26.71;35.50;99506.27;216864;1270;139557;-69
2023/06/16 14:22:06;;;;;;;5.40;4.80;;;;;;;26.75;35.54;99502.08;217020;1270;138712;-71
2023/06/16 14:27:11;;;;;;;6.10;5.50;;;;;;;26.92;35.90;99497.93;216067;1270;139832;-68
2023/06/16 14:32:16;;;;;;;5.10;4.70;;;;;;;27.02;35.55;99492.13;216322;1271;139117;-66
2023/06/16 14:37:20;;;;;;;6.30;4.70;;;;;;;27.02;35.33;99489.94;216719;1270;140450;-66
2023/06/16 14:42:26;;;;;;;5.90;5.20;;;;;;;27.17;35.42;99481.20;216459;1271;139250;-66
2023/06/16 14:47:30;;;;;;;6.20;5.10;;;;;;;27.26;35.11;99482.42;216157;1270;140060;-67
2023/06/16 14:52:37;;;;;;;6.50;4.90;;;;;;;27.28;35.07;99475.62;215803;1274;139137;-65
2023/06/16 14:57:42;;;;;;;4.50;4.10;;;;;;;27.06;35.27;99470.59;216471;1270;139906;-64
2023/06/16 15:02:47;;;;;;;5.10;4.70;;;;;;;26.98;35.41;99462.95;216590;1270;139210;-66
2023/06/16 15:07:53;;;;;;;5.00;4.60;;;;;;;26.96;35.46;99458.91;217058;1270;139888;-63
2023/06/16 15:12:58;;;;;;;6.80;5.10;;;;;;;26.96;35.43;99458.92;217099;1271;140707;-64
2023/06/16 15:18:03;;;;;;;5.90;4.90;;;;;;;27.03;35.11;99457.08;218457;1270;139554;-67
2023/06/16 15:23:07;;;;;;;15.80;5.40;;;;;;;27.07;35.05;99455.77;217362;1270;139992;-66
2023/06/16 15:28:11;;;;;;;5.70;5.20;;;;;;;26.96;35.24;99458.03;218468;1270;139578;-66
2023/06/16 15:33:16;;;;;;;6.50;5.20;;;;;;;26.75;35.13;99456.61;218202;1270;139269;-69
2023/06/16 15:38:21;;;;;;;5.80;5.30;;;;;;;26.52;35.21;99451.75;216705;1271;139705;-68
2023/06/16 15:43:26;;;;;;;5.20;4.90;;;;;;;26.31;35.59;99446.20;217375;1270;140482;-65
2023/06/16 15:48:31;;;;;;;5.10;4.70;;;;;;;26.11;35.73;99445.91;217546;1269;140387;-65
2023/06/16 15:53:36;;;;;;;5.10;4.70;;;;;;;25.92;36.06;99439.81;216303;1270;139190;-65
2023/06/16 15:58:45;;;;;;;6.30;5.60;;;;;;;25.76;35.86;99438.23;217787;1269;139789;-67
2023/06/16 16:03:58;;;;;;;6.70;5.40;;;;;;;25.61;36.35;99445.46;216260;1270;139652;-69
2023/06/16 16:09:07;;;;;;;5.30;4.90;;;;;;;25.57;36.30;99441.81;217179;1270;141410;-72
2023/06/16 16:14:17;;;;;;;30.30;7.10;;;;;;;25.43;36.15;99435.27;216316;1270;139816;-69
2023/06/16 16:19:25;;;;;;;5.90;4.70;;;;;;;25.23;36.64;99433.83;216107;1270;140065;-68
2023/06/16 16:24:38;;;;;;;6.10;4.70;;;;;;;25.11;36.47;99433.90;216382;1270;140099;-69
2023/06/16 16:36:33;;;;;;;5.20;4.80;;;;;;;25.05;37.10;99437.91;217010;1270;139696;-64
2023/06/16 16:41:57;;;;;;;5.70;5.20;;;;;;;24.88;36.91;99440.96;216546;1270;139793;-64
2023/06/16 17:07:24;;;;;;;5.80;5.20;;;;;;;24.80;37.95;99440.35;216633;1269;219977;-66
2023/06/16 17:12:29;;;;;;;7.30;6.50;;;;;;;24.72;37.81;99444.91;217036;1268;141488;-68
2023/06/16 17:17:33;;;;;;;7.40;6.70;;;;;;;24.62;38.24;99445.16;217001;1269;140215;-72
2023/06/16 17:22:38;;;;;;;8.30;7.40;;;;;;;24.52;38.81;99445.36;216875;1270;140165;-68
2023/06/16 17:27:44;;;;;;;8.90;8.00;;;;;;;24.45;38.75;99443.00;216774;1270;140127;-67
2023/06/16 17:33:03;;;;;;;10.80;9.40;;;;;;;24.36;38.89;99436.93;217071;1270;140193;-68
2023/06/16 17:38:07;;;;;;;17.50;8.80;;;;;;;24.28;39.18;99435.91;216824;1270;140094;-64
2023/06/16 17:43:14;;;;;;;9.70;8.60;;;;;;;24.16;39.46;99443.13;218012;1270;139779;-65
2023/06/16 17:48:18;;;;;;;21.70;9.40;;;;;;;24.01;40.64;99436.33;217820;1269;139174;-66
2023/06/16 17:53:24;;;;;;;12.90;8.70;;;;;;;23.77;41.79;99438.02;218648;1269;140458;-69
2023/06/16 17:58:30;;;;;;;13.80;9.00;;;;;;;23.51;42.55;99446.74;218129;1270;140406;-66
2023/06/16 18:03:37;;;;;;;22.90;9.70;;;;;;;23.27;43.94;99450.55;216224;1270;139144;-66
2023/06/16 18:08:42;;;;;;;14.10;10.30;;;;;;;23.03;44.51;99453.69;217977;1270;139906;-69
2023/06/16 18:13:47;;;;;;;10.20;8.70;;;;;;;22.75;45.21;99448.27;216108;1270;140032;-64
2023/06/16 18:18:52;;;;;;;9.10;8.40;;;;;;;22.47;45.98;99449.63;217377;1270;140449;-67
2023/06/16 18:23:58;;;;;;;;;;;;;;;22.18;46.53;99449.52;216983;1269;139553;-64
2023/06/16 18:29:04;;;;;;;97.00;15.90;;;;;;;21.93;47.29;99450.87;217961;1271;125528;-66
2023/06/16 18:34:10;;;;;;;11.50;8.60;;;;;;;21.68;47.75;99450.65;215998;1270;139205;-64
2023/06/16 18:39:21;;;;;;;10.20;9.20;;;;;;;21.41;48.01;99447.61;216479;1271;139334;-69
2023/06/16 18:44:31;;;;;;;10.50;9.60;;;;;;;21.12;48.78;99448.90;215995;1270;139018;-68
2023/06/16 18:49:38;;;;;;;10.30;9.40;;;;;;;20.87;49.38;99446.73;216783;1270;140562;-71
2023/06/16 18:54:47;;;;;;;10.50;9.60;;;;;;;20.57;49.92;99448.84;215918;1272;139293;-66
2023/06/16 18:59:54;;;;;;;9.20;8.50;;;;;;;20.28;50.55;99456.20;216400;1270;140508;-72
2023/06/16 19:05:08;;;;;;;10.90;10.00;;;;;;;20.01;51.19;99458.45;215846;1271;138884;-67
2023/06/16 19:10:15;;;;;;;10.00;8.80;;;;;;;19.76;51.74;99457.37;217949;1271;139929;-68
2023/06/16 19:15:22;;;;;;;11.10;9.80;;;;;;;19.47;52.17;99463.17;216062;1270;140196;-66
2023/06/16 19:20:26;;;;;;;11.10;10.20;;;;;;;19.17;52.63;99469.83;217506;1269;140435;-69
2023/06/16 19:25:30;;;;;;;12.60;11.00;;;;;;;18.89;53.46;99471.39;216120;1270;139276;-64
2023/06/16 19:30:36;;;;;;;11.20;10.30;;;;;;;18.66;54.08;99474.31;217147;1271;139744;-68
2023/06/16 19:35:46;;;;;;;11.90;10.90;;;;;;;18.47;54.63;99481.10;218656;1269;139297;-68
2023/06/16 19:40:55;;;;;;;19.70;10.90;;;;;;;18.30;55.02;99483.34;217926;1270;140186;-69
2023/06/16 19:46:09;;;;;;;12.30;11.00;;;;;;;18.05;55.23;99488.98;218712;1270;235254;-68
2023/06/16 19:51:15;;;;;;;11.90;10.80;;;;;;;17.82;56.08;99491.36;218767;1270;139424;-66
2023/06/16 19:56:21;;;;;;;14.20;11.30;;;;;;;17.57;56.47;99485.54;218082;1269;139748;-71
2023/06/16 20:01:27;;;;;;;11.70;10.90;;;;;;;17.34;56.96;99483.78;217238;1270;139741;-69
2023/06/16 20:06:37;;;;;;;12.50;11.30;;;;;;;17.14;57.60;99478.48;218044;1271;140233;-70
2023/06/16 20:11:44;;;;;;;12.60;11.50;;;;;;;17.01;58.19;99479.14;216223;1273;139368;-67
2023/06/16 20:16:56;;;;;;;16.40;12.80;;;;;;;16.91;58.59;99481.59;217599;1270;139730;-65
2023/06/16 20:22:04;;;;;;;14.80;13.30;;;;;;;16.85;59.06;99481.36;215963;1272;139681;-66
2023/06/16 20:27:11;;;;;;;11.40;10.30;;;;;;;16.76;59.28;99483.94;216700;1270;140374;-65
2023/06/16 20:32:19;;;;;;;12.50;11.30;;;;;;;16.47;59.36;99481.42;217097;1270;140852;-64
2023/06/16 20:37:32;;;;;;;23.30;13.80;;;;;;;16.25;60.00;99482.90;216284;1270;139597;-65
2023/06/16 20:42:39;;;;;;;15.30;13.80;;;;;;;16.15;60.62;99483.29;217389;1273;140192;-68
2023/06/16 20:47:49;;;;;;;13.40;12.10;;;;;;;16.05;60.96;99487.80;217063;1270;140492;-66
2023/06/16 20:52:54;;;;;;;12.30;11.20;;;;;;;15.83;61.19;99486.48;216817;1270;139924;-68
2023/06/16 20:58:01;;;;;;;12.40;11.20;;;;;;;15.60;61.64;99484.85;217760;1271;139361;-68
2023/06/16 21:03:09;;;;;;;14.90;13.20;;;;;;;15.54;62.38;99479.05;217375;1270;141901;-68
2023/06/16 21:08:15;;;;;;;15.60;13.20;;;;;;;15.51;62.55;99477.77;216894;1270;140893;-68
2023/06/16 21:13:23;;;;;;;12.30;11.10;;;;;;;15.40;62.74;99474.88;217124;1271;141718;-66
2023/06/16 21:18:31;;;;;;;17.90;10.10;;;;;;;15.30;62.97;99469.22;217993;1270;140295;-67
2023/06/16 21:23:36;;;;;;;14.70;11.80;;;;;;;15.18;63.13;99470.76;217538;1269;140878;-67
2023/06/16 21:28:40;;;;;;;13.50;12.00;;;;;;;15.06;63.49;99466.57;218463;1270;140333;-67
2023/06/16 21:33:45;;;;;;;15.40;12.80;;;;;;;14.99;63.79;99466.27;218639;1270;141049;-69
2023/06/16 21:38:55;;;;;;;13.70;12.40;;;;;;;14.93;64.08;99466.06;218612;1268;140734;-67
2023/06/16 21:44:02;;;;;;;12.40;11.30;;;;;;;14.87;64.25;99467.19;218465;1270;140704;-70
2023/06/16 21:49:08;;;;;;;13.70;12.20;;;;;;;14.84;65.03;99461.86;218510;1269;140743;-68
2023/06/16 21:54:13;;;;;;;13.70;12.40;;;;;;;14.83;64.91;99463.05;218523;1269;140405;-68
2023/06/16 21:59:19;;;;;;;13.40;12.20;;;;;;;14.71;64.89;99465.47;216475;1271;140434;-67
2023/06/16 22:04:25;;;;;;;14.00;12.60;;;;;;;14.58;65.15;99462.19;217049;1269;140286;-68
2023/06/16 22:09:30;;;;;;;14.10;12.70;;;;;;;14.48;65.51;99459.65;217166;1271;140955;-66
2023/06/16 22:14:36;;;;;;;16.00;12.90;;;;;;;14.38;65.78;99455.92;216089;1271;141977;-68
2023/06/16 22:19:42;;;;;;;12.50;11.20;;;;;;;14.24;65.78;99453.37;216164;1271;140970;-68
2023/06/16 22:24:49;;;;;;;15.90;13.10;;;;;;;14.10;66.12;99449.00;217368;1271;140834;-68
2023/06/16 22:29:55;;;;;;;;;;;;;;;14.00;66.10;99446.30;216079;1271;140856;-68
2023/06/16 22:35:00;;;;;;;19.20;13.40;;;;;;;13.91;67.11;99442.20;216230;1271;126996;-69
2023/06/16 22:40:06;;;;;;;12.90;11.70;;;;;;;13.86;67.02;99443.30;216909;1270;141636;-70
2023/06/16 22:45:12;;;;;;;15.20;12.10;;;;;;;13.67;66.89;99439.16;215949;1271;140169;-66
2023/06/16 22:50:18;;;;;;;14.70;13.10;;;;;;;13.45;67.25;99429.80;216652;1269;141112;-67
2023/06/16 22:55:23;;;;;;;17.30;13.50;;;;;;;13.34;67.77;99420.27;216457;1270;140685;-66
2023/06/16 23:00:29;;;;;;;20.60;13.70;;;;;;;13.33;68.10;99422.15;215968;1274;140660;-65
2023/06/16 23:05:34;;;;;;;16.30;12.60;;;;;;;13.27;68.29;99421.09;215934;1271;140010;-65
2023/06/16 23:10:38;;;;;;;19.30;13.60;;;;;;;13.18;68.62;99416.16;216871;1270;141138;-66
2023/06/16 23:15:44;;;;;;;13.60;11.40;;;;;;;13.07;68.89;99421.16;216144;1271;142302;-68
2023/06/16 23:20:50;;;;;;;13.90;12.50;;;;;;;13.00;69.35;99417.80;217039;1271;140232;-68
2023/06/16 23:25:54;;;;;;;14.20;12.30;;;;;;;13.04;70.04;99415.36;218639;1271;141486;-64
2023/06/16 23:31:01;;;;;;;13.00;11.70;;;;;;;12.98;69.42;99418.80;218247;1270;566845;-68
2023/06/16 23:36:06;;;;;;;16.60;12.00;;;;;;;12.82;69.46;99421.48;217945;1270;141441;-69
2023/06/16 23:41:11;;;;;;;12.70;11.40;;;;;;;12.72;69.63;99419.70;216489;1271;140653;-65
2023/06/16 23:46:18;;;;;;;17.60;12.30;;;;;;;12.62;69.81;99419.81;218617;1270;247416;-66
2023/06/16 23:51:23;;;;;;;15.40;12.50;;;;;;;12.59;70.17;99415.62;218636;1271;141890;-68